Time;durP1;ratioP1;P1;durP2;ratioP2;P2;SDS_P1;SDS_P2;PMS_P1;PMS_P2;Temp;Humidity;BMP_temperature;BMP_pressure;BME280_temperature;BME280_humidity;BME280_pressure;Samples;Min_cycle;Max_cycle;Signal;HPM_P1;HPM_P2
2021/03/16 00:01:02;;;;;;;15.45;3.40;;;6.90;99.90;;;;;;4159637;28;20069;-68
2021/03/16 00:03:03;;;;;;;17.15;3.72;;;6.90;99.90;;;;;;4161141;28;20034;-69
2021/03/16 00:05:05;;;;;;;23.98;4.18;;;6.90;99.90;;;;;;4161148;28;20111;-69
2021/03/16 00:07:07;;;;;;;16.33;3.67;;;6.90;99.90;;;;;;4160638;28;20485;-69
2021/03/16 00:09:08;;;;;;;20.65;3.13;;;6.90;99.90;;;;;;4159948;28;20516;-69
2021/03/16 00:11:08;;;;;;;23.05;3.92;;;6.90;99.90;;;;;;4159461;28;20071;-69
2021/03/16 00:13:13;;;;;;;18.52;3.55;;;6.90;99.90;;;;;;4151677;28;20034;-68
2021/03/16 00:15:14;;;;;;;18.70;3.80;;;6.90;99.90;;;;;;4152186;28;20045;-69
2021/03/16 00:17:15;;;;;;;21.08;3.50;;;6.90;99.90;;;;;;4152329;28;20477;-69
2021/03/16 00:19:19;;;;;;;15.43;2.50;;;6.90;99.90;;;;;;4154502;28;20034;-69
2021/03/16 00:21:20;;;;;;;10.15;2.67;;;6.90;99.90;;;;;;4158251;28;20041;-69
2021/03/16 00:23:21;;;;;;;23.65;4.22;;;7.00;99.90;;;;;;4154801;28;20048;-69
2021/03/16 00:25:22;;;;;;;9.68;2.40;;;7.00;99.90;;;;;;4161128;28;20029;-69
2021/03/16 00:27:22;;;;;;;18.83;3.58;;;7.00;99.90;;;;;;4151472;28;20032;-69
2021/03/16 00:29:23;;;;;;;21.75;3.95;;;7.00;99.90;;;;;;4160938;28;20033;-69
2021/03/16 00:31:24;;;;;;;27.52;3.72;;;7.00;99.90;;;;;;4142245;28;20124;-69
2021/03/16 00:33:24;;;;;;;15.60;3.60;;;7.00;99.90;;;;;;4160959;28;20033;-69
2021/03/16 00:35:25;;;;;;;16.10;3.03;;;7.00;99.90;;;;;;4161104;28;20034;-69
2021/03/16 00:37:27;;;;;;;24.25;3.65;;;7.00;99.90;;;;;;4158978;28;20559;-68
2021/03/16 00:39:27;;;;;;;24.25;3.40;;;7.00;99.90;;;;;;4161098;28;20029;-68
2021/03/16 00:41:28;;;;;;;10.82;3.00;;;7.00;99.90;;;;;;4160265;28;20087;-69
2021/03/16 00:43:29;;;;;;;18.48;3.38;;;6.90;99.90;;;;;;4159344;28;20038;-69
2021/03/16 00:45:30;;;;;;;29.38;3.78;;;6.90;99.90;;;;;;4159597;28;20057;-69
2021/03/16 00:47:31;;;;;;;15.55;2.97;;;6.90;99.90;;;;;;4158326;28;20518;-69
2021/03/16 00:49:31;;;;;;;20.70;3.67;;;6.90;99.90;;;;;;4169819;28;20033;-69
2021/03/16 00:51:32;;;;;;;16.13;3.50;;;6.90;99.90;;;;;;4159687;28;20033;-69
2021/03/16 00:53:32;;;;;;;20.95;3.78;;;6.90;99.90;;;;;;4159061;28;20116;-69
2021/03/16 00:55:34;;;;;;;22.90;3.92;;;7.00;99.90;;;;;;4160660;28;20497;-68
2021/03/16 00:57:34;;;;;;;16.45;3.13;;;7.00;99.90;;;;;;4147720;28;20037;-68
2021/03/16 00:59:38;;;;;;;23.45;3.83;;;7.00;99.90;;;;;;4160005;28;20025;-69
2021/03/16 01:01:39;;;;;;;19.42;3.40;;;6.90;99.90;;;;;;4159741;28;20041;-68
2021/03/16 01:03:40;;;;;;;14.35;2.70;;;7.00;99.90;;;;;;4158404;28;20033;-69
2021/03/16 01:05:41;;;;;;;15.65;3.10;;;7.00;99.90;;;;;;4151576;28;20136;-69
2021/03/16 01:07:41;;;;;;;23.30;3.40;;;7.00;99.90;;;;;;4158402;28;20055;-69
2021/03/16 01:09:42;;;;;;;15.35;2.78;;;7.00;99.90;;;;;;4160023;28;20096;-69
2021/03/16 01:11:43;;;;;;;21.00;3.47;;;7.00;99.90;;;;;;4160099;28;20053;-69
2021/03/16 01:13:43;;;;;;;25.55;3.83;;;7.00;99.90;;;;;;4160028;28;20041;-69
2021/03/16 01:15:44;;;;;;;18.35;3.30;;;7.00;99.90;;;;;;4160043;28;20044;-69
2021/03/16 01:17:45;;;;;;;24.85;4.20;;;7.00;99.90;;;;;;4159738;28;20116;-69
2021/03/16 01:19:45;;;;;;;20.17;3.35;;;7.00;99.90;;;;;;4160291;28;20612;-69
2021/03/16 01:21:46;;;;;;;21.55;3.38;;;7.00;99.90;;;;;;4159800;28;20041;-68
2021/03/16 01:23:47;;;;;;;14.50;2.70;;;7.00;99.90;;;;;;4159553;28;20473;-69
2021/03/16 01:25:47;;;;;;;19.67;3.80;;;6.90;99.90;;;;;;4160434;28;20038;-69
2021/03/16 01:27:48;;;;;;;16.13;3.22;;;6.90;99.90;;;;;;4159299;28;20038;-69
2021/03/16 01:29:48;;;;;;;21.77;3.22;;;6.90;99.90;;;;;;4154668;28;20036;-69
2021/03/16 01:31:49;;;;;;;16.48;2.65;;;6.90;99.90;;;;;;4160056;28;20044;-69
2021/03/16 01:33:50;;;;;;;13.02;2.30;;;6.90;99.90;;;;;;4155920;28;20057;-69
2021/03/16 01:35:51;;;;;;;21.48;3.38;;;6.90;99.90;;;;;;4156194;28;20104;-69
2021/03/16 01:37:56;;;;;;;18.35;3.55;;;6.90;99.90;;;;;;4157783;28;20496;-68
2021/03/16 01:39:57;;;;;;;20.13;3.25;;;6.90;99.90;;;;;;4154758;28;20041;-69
2021/03/16 01:41:58;;;;;;;23.00;3.42;;;6.90;99.90;;;;;;4127032;28;20157;-69
2021/03/16 01:43:59;;;;;;;15.43;2.80;;;6.90;99.90;;;;;;4158143;28;20105;-68
2021/03/16 01:46:00;;;;;;;13.20;2.72;;;6.90;99.90;;;;;;4159800;28;20091;-69
2021/03/16 01:48:03;;;;;;;24.90;3.60;;;6.80;99.90;;;;;;4180198;28;20475;-68
2021/03/16 01:50:05;;;;;;;16.05;3.08;;;6.80;99.90;;;;;;4154005;28;20424;-68
2021/03/16 01:52:06;;;;;;;25.07;3.27;;;6.80;99.90;;;;;;4155867;28;20112;-68
2021/03/16 01:54:08;;;;;;;17.33;3.22;;;6.80;99.90;;;;;;4157413;28;20033;-68
2021/03/16 01:56:12;;;;;;;16.87;2.73;;;6.80;99.90;;;;;;4143834;28;20113;-69
2021/03/16 01:58:13;;;;;;;16.85;3.30;;;6.80;99.90;;;;;;4155958;28;20394;-68
2021/03/16 02:00:14;;;;;;;15.68;3.13;;;6.80;99.90;;;;;;4159247;28;20048;-68
2021/03/16 02:02:15;;;;;;;13.10;2.78;;;6.80;99.90;;;;;;4157912;28;20163;-68
2021/03/16 02:04:16;;;;;;;11.98;2.28;;;6.80;99.90;;;;;;4154542;28;20053;-68
2021/03/16 02:06:29;;;;;;;23.95;3.08;;;6.80;99.90;;;;;;4157258;28;20465;-68
2021/03/16 02:08:52;;;;;;;11.13;2.33;;;6.80;99.90;;;;;;4155981;28;20165;-68
2021/03/16 02:11:22;;;;;;;25.85;3.40;;;6.80;99.90;;;;;;4149721;28;20029;-68
2021/03/16 02:13:35;;;;;;;11.95;2.58;;;6.80;99.90;;;;;;4144081;28;20040;-68
2021/03/16 02:15:39;;;;;;;16.95;2.78;;;6.90;99.90;;;;;;4156903;28;20060;-68
2021/03/16 02:17:42;;;;;;;19.23;2.97;;;6.80;99.90;;;;;;4156066;28;20121;-68
2021/03/16 02:20:20;;;;;;;13.02;2.22;;;6.80;99.90;;;;;;4158139;28;20057;-68
2021/03/16 02:22:28;;;;;;;12.15;2.60;;;6.80;99.90;;;;;;4153574;28;20037;-68
2021/03/16 02:25:13;;;;;;;13.02;2.30;;;6.80;99.90;;;;;;4157235;28;20041;-68
2021/03/16 02:27:15;;;;;;;13.98;2.70;;;6.80;99.90;;;;;;4157340;28;20045;-68
2021/03/16 02:29:19;;;;;;;13.68;3.10;;;6.80;99.90;;;;;;4159364;28;20457;-68
2021/03/16 02:31:21;;;;;;;15.50;2.95;;;6.80;99.90;;;;;;4154654;28;20033;-68
2021/03/16 02:33:28;;;;;;;25.88;3.67;;;6.90;99.90;;;;;;4158429;28;20083;-68
2021/03/16 02:35:29;;;;;;;17.90;3.03;;;6.90;99.90;;;;;;4157484;28;20537;-68
2021/03/16 02:37:35;;;;;;;15.10;2.63;;;6.90;99.90;;;;;;4159313;28;20030;-68
2021/03/16 02:39:37;;;;;;;17.55;2.55;;;6.90;99.90;;;;;;4157396;28;20036;-68
2021/03/16 02:41:45;;;;;;;16.88;2.80;;;6.90;99.90;;;;;;4157155;28;20520;-68
2021/03/16 02:43:47;;;;;;;14.45;2.22;;;6.90;99.90;;;;;;4157382;28;20026;-68
2021/03/16 02:45:49;;;;;;;17.17;2.60;;;7.00;99.90;;;;;;4158887;28;20040;-69
2021/03/16 02:47:50;;;;;;;13.18;2.55;;;6.90;99.90;;;;;;4155327;28;20041;-68
2021/03/16 02:49:52;;;;;;;15.40;2.80;;;6.90;99.90;;;;;;4158568;28;20103;-68
2021/03/16 02:51:54;;;;;;;18.00;2.40;;;6.90;99.90;;;;;;4157109;28;20033;-68
2021/03/16 02:53:56;;;;;;;18.25;3.17;;;7.00;99.90;;;;;;4157262;28;20170;-69
2021/03/16 02:55:58;;;;;;;10.02;2.97;;;7.00;99.90;;;;;;4159577;28;20037;-68
2021/03/16 02:57:59;;;;;;;18.05;2.58;;;6.90;99.90;;;;;;4159517;28;20030;-68
2021/03/16 03:00:01;;;;;;;16.17;2.85;;;6.90;99.90;;;;;;4158411;28;20731;-69
2021/03/16 03:02:03;;;;;;;17.95;3.30;;;7.00;99.90;;;;;;4158107;28;20038;-68
2021/03/16 03:04:08;;;;;;;23.92;3.67;;;6.90;99.90;;;;;;4156137;28;20642;-69
2021/03/16 03:06:13;;;;;;;13.40;2.50;;;6.90;99.90;;;;;;4156803;28;20056;-68
2021/03/16 03:08:14;;;;;;;19.77;3.75;;;6.90;99.90;;;;;;4158406;28;20517;-68
2021/03/16 03:10:15;;;;;;;15.95;2.88;;;6.90;99.90;;;;;;4159054;28;20038;-68
2021/03/16 03:12:17;;;;;;;13.73;3.22;;;6.90;99.90;;;;;;4158386;28;20414;-68
2021/03/16 03:14:18;;;;;;;19.20;2.95;;;6.90;99.90;;;;;;4157885;28;20112;-68
2021/03/16 03:16:19;;;;;;;16.05;2.35;;;6.90;99.90;;;;;;4158718;28;20537;-68
2021/03/16 03:18:20;;;;;;;14.13;3.00;;;6.90;99.90;;;;;;4158541;28;20051;-69
2021/03/16 03:20:21;;;;;;;14.80;3.38;;;6.90;99.90;;;;;;4158671;28;20044;-68
2021/03/16 03:22:35;;;;;;;12.25;2.95;;;6.90;99.90;;;;;;4159227;28;20517;-68
2021/03/16 03:24:50;;;;;;;20.15;3.25;;;6.90;99.90;;;;;;4160091;28;20041;-69
2021/03/16 03:27:10;;;;;;;12.70;2.28;;;6.90;99.90;;;;;;4155049;28;20377;-69
2021/03/16 03:29:12;;;;;;;13.32;2.55;;;6.90;99.90;;;;;;4161530;28;20038;-68
2021/03/16 03:31:14;;;;;;;19.17;2.97;;;6.80;99.90;;;;;;4161134;28;20037;-69
2021/03/16 03:33:18;;;;;;;13.70;2.92;;;6.80;99.90;;;;;;4162562;28;20113;-68
2021/03/16 03:35:19;;;;;;;20.02;3.47;;;6.80;99.90;;;;;;4161877;28;20053;-68
2021/03/16 03:37:24;;;;;;;20.17;3.22;;;6.80;99.90;;;;;;4160101;28;20109;-68
2021/03/16 03:39:27;;;;;;;18.33;3.47;;;6.80;99.90;;;;;;4157911;28;20373;-68
2021/03/16 03:41:29;;;;;;;22.95;3.78;;;6.70;99.90;;;;;;4161007;28;20052;-68
2021/03/16 03:43:33;;;;;;;16.42;3.05;;;6.80;99.90;;;;;;4160884;28;20040;-68
2021/03/16 03:45:35;;;;;;;13.15;3.05;;;6.80;99.90;;;;;;4162054;28;20107;-69
2021/03/16 03:47:36;;;;;;;18.83;3.28;;;6.80;99.90;;;;;;4158040;28;20552;-68
2021/03/16 03:49:38;;;;;;;20.33;3.20;;;6.80;99.90;;;;;;4157866;28;20038;-68
2021/03/16 03:51:39;;;;;;;19.13;3.88;;;6.80;99.90;;;;;;4158371;28;20393;-69
2021/03/16 03:53:40;;;;;;;20.10;2.95;;;6.80;99.90;;;;;;4158437;28;20758;-68
2021/03/16 03:55:44;;;;;;;16.63;3.10;;;6.80;99.90;;;;;;4166111;28;20760;-68
2021/03/16 03:57:46;;;;;;;17.83;2.72;;;6.80;99.90;;;;;;4158209;28;20136;-69
2021/03/16 03:59:48;;;;;;;11.82;2.15;;;6.80;99.90;;;;;;4161626;28;20034;-68
2021/03/16 04:01:50;;;;;;;13.43;2.15;;;6.80;99.90;;;;;;4161247;28;20037;-68
2021/03/16 04:03:51;;;;;;;15.07;2.75;;;6.80;99.90;;;;;;4160115;28;20048;-68
2021/03/16 04:05:52;;;;;;;13.45;2.00;;;6.80;99.90;;;;;;4161453;28;20065;-69
2021/03/16 04:07:55;;;;;;;9.30;2.25;;;6.80;99.90;;;;;;4152697;28;20042;-68
2021/03/16 04:09:56;;;;;;;;;;;6.80;99.90;;;;;;4161247;28;20076;-68
2021/03/16 04:11:58;;;;;;;13.00;2.30;;;6.80;99.90;;;;;;4157156;28;19967;-69
2021/03/16 04:13:59;;;;;;;11.00;2.40;;;6.90;99.90;;;;;;4158224;28;20037;-69
2021/03/16 04:16:01;;;;;;;15.15;2.58;;;6.90;99.90;;;;;;4160906;28;20044;-68
2021/03/16 04:18:03;;;;;;;12.02;2.10;;;6.90;99.90;;;;;;4160465;28;20029;-68
2021/03/16 04:20:05;;;;;;;16.13;2.95;;;6.90;99.90;;;;;;4160899;28;20516;-68
2021/03/16 04:22:06;;;;;;;18.15;3.15;;;6.90;99.90;;;;;;4160116;28;20064;-68
2021/03/16 04:24:08;;;;;;;16.15;2.65;;;6.90;99.90;;;;;;4160716;28;20104;-68
2021/03/16 04:26:10;;;;;;;;;;;6.90;99.90;;;;;;4160885;28;20138;-68
2021/03/16 04:28:11;;;;;;;10.95;2.00;;;6.90;99.90;;;;;;4159510;28;19932;-68
2021/03/16 04:30:12;;;;;;;12.73;2.45;;;6.90;99.90;;;;;;4160426;28;20114;-68
2021/03/16 04:32:13;;;;;;;18.20;3.15;;;6.90;99.90;;;;;;4160318;28;20056;-68
2021/03/16 04:34:13;;;;;;;12.25;2.47;;;6.90;99.90;;;;;;4159162;28;20109;-68
2021/03/16 04:36:14;;;;;;;14.20;2.33;;;6.90;99.90;;;;;;4152701;28;20041;-68
2021/03/16 04:38:15;;;;;;;13.80;2.17;;;6.90;99.90;;;;;;4160711;28;20635;-68
2021/03/16 04:40:16;;;;;;;12.90;2.55;;;6.90;99.90;;;;;;4158745;28;20033;-68
2021/03/16 04:42:17;;;;;;;16.75;2.40;;;6.90;99.90;;;;;;4160201;28;20584;-68
2021/03/16 04:44:17;;;;;;;10.25;2.38;;;6.90;99.90;;;;;;4159881;28;20034;-68
2021/03/16 04:46:18;;;;;;;14.35;2.50;;;6.90;99.90;;;;;;4160047;28;20029;-68
2021/03/16 04:48:19;;;;;;;16.27;3.22;;;6.90;99.90;;;;;;4157926;28;20025;-68
2021/03/16 04:50:21;;;;;;;15.82;2.67;;;6.80;99.90;;;;;;4138212;28;20046;-68
2021/03/16 04:52:22;;;;;;;15.18;2.60;;;6.90;99.90;;;;;;4157270;28;20197;-68
2021/03/16 04:54:23;;;;;;;13.55;2.67;;;6.90;99.90;;;;;;4159557;28;20069;-68
2021/03/16 04:56:23;;;;;;;9.18;2.15;;;6.90;99.90;;;;;;4158010;28;20041;-68
2021/03/16 04:58:24;;;;;;;15.50;2.92;;;6.90;99.90;;;;;;4160445;28;20481;-68
2021/03/16 05:00:25;;;;;;;15.60;2.88;;;6.90;99.90;;;;;;4160054;28;20026;-68
2021/03/16 05:02:26;;;;;;;9.70;2.42;;;6.90;99.90;;;;;;4156943;28;20040;-68
2021/03/16 05:04:27;;;;;;;7.82;1.77;;;6.90;99.90;;;;;;4135420;28;20026;-69
2021/03/16 05:06:31;;;;;;;16.15;2.92;;;6.90;99.90;;;;;;4156877;28;20034;-68
2021/03/16 05:08:32;;;;;;;19.45;3.33;;;6.90;99.90;;;;;;4159189;28;20103;-68
2021/03/16 05:10:32;;;;;;;17.63;3.05;;;6.90;99.90;;;;;;4160171;28;20041;-69
2021/03/16 05:12:38;;;;;;;16.55;3.05;;;6.80;99.90;;;;;;4157622;28;20413;-68
2021/03/16 05:14:38;;;;;;;22.90;3.10;;;6.90;99.90;;;;;;4158554;28;20041;-68
2021/03/16 05:16:39;;;;;;;19.58;2.70;;;6.80;99.90;;;;;;4158107;28;20030;-68
2021/03/16 05:18:40;;;;;;;9.45;2.10;;;6.80;99.90;;;;;;4159668;28;20053;-68
2021/03/16 05:20:40;;;;;;;17.77;3.10;;;6.80;99.90;;;;;;4157226;28;20045;-68
2021/03/16 05:22:41;;;;;;;10.93;2.10;;;6.80;99.90;;;;;;4159065;28;20091;-69
2021/03/16 05:24:42;;;;;;;20.48;3.25;;;6.80;99.90;;;;;;4157642;28;20804;-69
2021/03/16 05:26:42;;;;;;;18.48;3.25;;;6.80;99.90;;;;;;4160135;28;20385;-69
2021/03/16 05:28:43;;;;;;;19.83;3.20;;;6.80;99.90;;;;;;4159187;28;20525;-68
2021/03/16 05:30:43;;;;;;;19.50;2.88;;;6.80;99.90;;;;;;4157725;28;20358;-69
2021/03/16 05:32:44;;;;;;;15.68;2.35;;;6.80;99.90;;;;;;4158309;28;20041;-69
2021/03/16 05:34:46;;;;;;;18.85;2.83;;;6.80;99.90;;;;;;4154789;28;20033;-68
2021/03/16 05:36:47;;;;;;;25.50;3.20;;;6.90;99.90;;;;;;4159348;28;20091;-69
2021/03/16 05:38:47;;;;;;;14.35;2.85;;;6.80;99.90;;;;;;4159532;28;20034;-69
2021/03/16 05:40:48;;;;;;;14.68;2.63;;;6.80;99.90;;;;;;4158828;28;20065;-68
2021/03/16 05:42:50;;;;;;;19.15;3.28;;;6.80;99.90;;;;;;4159206;28;20040;-68
2021/03/16 05:44:52;;;;;;;22.88;3.70;;;6.80;99.90;;;;;;4155740;28;20040;-69
2021/03/16 05:46:53;;;;;;;25.27;2.67;;;6.80;99.90;;;;;;4157944;28;20033;-68
2021/03/16 05:48:55;;;;;;;13.95;2.95;;;6.70;99.90;;;;;;4158796;28;20037;-69
2021/03/16 05:51:00;;;;;;;20.35;3.42;;;6.70;99.90;;;;;;4159009;28;20057;-68
2021/03/16 05:53:02;;;;;;;14.50;3.03;;;6.70;99.90;;;;;;4156146;28;20037;-68
2021/03/16 05:55:04;;;;;;;28.10;4.30;;;6.60;99.90;;;;;;4157775;28;20180;-68
2021/03/16 05:57:08;;;;;;;11.57;2.38;;;6.60;99.90;;;;;;4159135;28;20034;-68
2021/03/16 05:59:10;;;;;;;20.27;3.05;;;6.60;99.90;;;;;;4159164;28;20676;-68
2021/03/16 06:01:13;;;;;;;17.85;2.63;;;6.60;99.90;;;;;;4131994;28;24904;-69
2021/03/16 06:03:13;;;;;;;14.82;3.15;;;6.70;99.90;;;;;;4160292;28;20029;-69
2021/03/16 06:05:15;;;;;;;16.25;2.40;;;6.70;99.90;;;;;;4158920;28;20489;-68
2021/03/16 06:07:15;;;;;;;16.67;3.03;;;6.70;99.90;;;;;;4156048;28;20049;-68
2021/03/16 06:09:16;;;;;;;16.90;2.75;;;6.80;99.90;;;;;;4159576;28;20126;-68
2021/03/16 06:11:17;;;;;;;22.13;3.35;;;6.70;99.90;;;;;;4158861;28;20045;-69
2021/03/16 06:13:19;;;;;;;14.20;2.60;;;6.80;99.90;;;;;;4158266;28;20374;-68
2021/03/16 06:15:22;;;;;;;17.90;2.92;;;6.70;99.90;;;;;;4158891;28;20037;-68
2021/03/16 06:17:22;;;;;;;12.65;2.60;;;6.80;99.90;;;;;;4157737;28;20080;-69
2021/03/16 06:19:32;;;;;;;19.17;3.38;;;6.80;99.90;;;;;;4157343;28;20037;-69
2021/03/16 06:21:32;;;;;;;11.30;2.80;;;6.80;99.90;;;;;;4157299;28;20493;-68
2021/03/16 06:23:34;;;;;;;12.70;2.75;;;6.80;99.90;;;;;;4158488;28;20037;-68
2021/03/16 06:25:40;;;;;;;18.60;3.17;;;6.80;99.90;;;;;;4158733;28;20037;-69
2021/03/16 06:27:41;;;;;;;11.52;3.05;;;6.80;99.90;;;;;;4158862;28;20076;-69
2021/03/16 06:29:43;;;;;;;14.98;2.85;;;6.80;99.90;;;;;;4159432;28;20033;-69
2021/03/16 06:31:43;;;;;;;14.23;3.45;;;6.80;99.90;;;;;;4157139;28;20041;-69
2021/03/16 06:33:44;;;;;;;13.70;3.70;;;6.80;99.90;;;;;;4149066;28;20029;-69
2021/03/16 06:36:08;;;;;;;22.80;4.90;;;6.80;99.90;;;;;;4157348;28;20121;-69
2021/03/16 06:38:30;;;;;;;14.20;3.10;;;6.80;99.90;;;;;;4145298;28;20129;-69
2021/03/16 06:40:33;;;;;;;16.67;2.65;;;6.80;99.90;;;;;;4154127;28;20048;-69
2021/03/16 06:42:33;;;;;;;9.95;2.60;;;6.80;99.90;;;;;;4153659;28;20053;-69
2021/03/16 06:44:34;;;;;;;19.88;2.97;;;6.80;99.90;;;;;;4163318;28;20121;-70
2021/03/16 06:46:37;;;;;;;16.00;2.55;;;6.80;99.90;;;;;;4157430;28;20112;-69
2021/03/16 06:48:38;;;;;;;16.67;2.70;;;6.80;99.90;;;;;;4154679;28;20033;-69
2021/03/16 06:50:41;;;;;;;13.15;2.60;;;6.90;99.90;;;;;;4148149;28;20565;-70
2021/03/16 06:52:50;;;;;;;17.10;3.45;;;6.90;99.90;;;;;;4148193;28;20076;-69
2021/03/16 06:54:51;;;;;;;22.10;3.33;;;6.90;99.90;;;;;;4146557;28;20033;-69
2021/03/16 06:57:02;;;;;;;13.15;2.60;;;6.90;99.90;;;;;;4155378;28;20034;-69
2021/03/16 06:59:05;;;;;;;16.38;3.22;;;6.90;99.90;;;;;;4156582;28;20052;-70
2021/03/16 07:01:08;;;;;;;15.88;3.85;;;6.90;99.90;;;;;;4153269;28;20045;-69
2021/03/16 07:03:14;;;;;;;19.63;3.00;;;6.90;99.90;;;;;;4157480;28;20429;-69
2021/03/16 07:05:25;;;;;;;23.23;4.20;;;6.90;99.90;;;;;;4161489;28;20128;-69
2021/03/16 07:07:28;;;;;;;17.10;3.17;;;7.00;99.90;;;;;;4154045;28;20052;-69
2021/03/16 07:09:30;;;;;;;;;;;7.00;99.90;;;;;;4153369;28;20045;-69
2021/03/16 07:11:34;;;;;;;17.17;3.33;;;7.00;99.90;;;;;;4161186;28;19982;-69
2021/03/16 07:13:38;;;;;;;14.20;3.50;;;7.00;99.90;;;;;;4154014;28;20034;-69
2021/03/16 07:15:42;;;;;;;20.73;4.10;;;7.00;99.90;;;;;;4146672;28;20684;-70
2021/03/16 07:17:44;;;;;;;25.20;4.97;;;7.10;99.90;;;;;;4149039;28;20041;-69
2021/03/16 07:19:48;;;;;;;15.85;3.90;;;7.10;99.90;;;;;;4165172;28;20056;-69
2021/03/16 07:21:51;;;;;;;20.55;3.65;;;7.10;99.90;;;;;;4158061;28;20041;-69
2021/03/16 07:23:54;;;;;;;17.40;3.55;;;7.10;99.90;;;;;;4152400;28;20045;-69
2021/03/16 07:25:55;;;;;;;23.23;3.72;;;7.10;99.90;;;;;;4159709;28;20127;-68
2021/03/16 07:27:57;;;;;;;15.07;3.45;;;7.10;99.90;;;;;;4160634;28;20030;-69
2021/03/16 07:29:59;;;;;;;19.42;3.75;;;7.10;99.90;;;;;;4162187;28;20120;-69
2021/03/16 07:32:02;;;;;;;18.08;3.90;;;7.10;99.90;;;;;;4156061;28;20041;-69
2021/03/16 07:34:05;;;;;;;19.75;3.30;;;7.10;99.90;;;;;;4167390;28;20045;-69
2021/03/16 07:36:06;;;;;;;18.77;3.55;;;7.10;99.90;;;;;;4164175;28;20032;-69
2021/03/16 07:38:08;;;;;;;18.48;3.28;;;7.10;99.90;;;;;;4160619;28;20030;-69
2021/03/16 07:40:10;;;;;;;21.97;3.80;;;7.20;99.90;;;;;;4162090;28;20042;-69
2021/03/16 07:42:11;;;;;;;13.38;3.13;;;7.20;99.90;;;;;;4161622;28;20360;-68
2021/03/16 07:44:17;;;;;;;22.80;3.65;;;7.20;99.90;;;;;;4161465;28;20042;-69
2021/03/16 07:46:19;;;;;;;23.77;3.90;;;7.20;99.90;;;;;;4161658;28;20025;-69
2021/03/16 07:48:21;;;;;;;14.90;2.88;;;7.20;99.90;;;;;;4161365;28;20385;-69
2021/03/16 07:50:30;;;;;;;20.73;4.45;;;7.30;99.90;;;;;;4157981;28;20041;-69
2021/03/16 07:52:31;;;;;;;18.60;2.80;;;7.40;99.90;;;;;;4154740;28;20058;-69
2021/03/16 07:54:37;;;;;;;15.60;3.05;;;7.40;99.90;;;;;;4180304;28;20035;-69
2021/03/16 07:56:41;;;;;;;15.27;2.85;;;7.50;99.90;;;;;;4152929;28;20095;-69
2021/03/16 07:58:45;;;;;;;11.95;2.58;;;7.60;99.90;;;;;;4158491;28;20121;-69
2021/03/16 08:00:45;;;;;;;17.67;3.10;;;7.70;99.90;;;;;;4154162;28;20057;-69
2021/03/16 08:02:57;;;;;;;22.35;4.03;;;7.70;99.90;;;;;;4158623;28;20081;-69
2021/03/16 08:04:57;;;;;;;19.75;3.40;;;7.90;99.90;;;;;;4154399;28;20036;-68
2021/03/16 08:07:00;;;;;;;14.35;3.17;;;7.90;99.90;;;;;;4155949;28;20041;-69
2021/03/16 08:09:02;;;;;;;15.95;3.25;;;7.80;99.90;;;;;;4150984;28;20048;-68
2021/03/16 08:11:14;;;;;;;18.67;3.78;;;7.90;99.90;;;;;;4153870;28;20037;-69
2021/03/16 08:13:17;;;;;;;13.20;2.58;;;7.80;99.90;;;;;;4154969;28;20028;-69
2021/03/16 08:15:19;;;;;;;17.13;3.10;;;7.80;99.90;;;;;;4155448;28;20084;-69
2021/03/16 08:17:31;;;;;;;23.08;4.30;;;7.80;99.90;;;;;;4149512;28;20390;-68
2021/03/16 08:19:36;;;;;;;11.60;2.53;;;7.80;99.90;;;;;;4157316;28;20034;-69
2021/03/16 08:21:38;;;;;;;18.13;3.20;;;7.70;99.90;;;;;;4156906;28;20188;-69
2021/03/16 08:23:39;;;;;;;15.25;2.72;;;7.70;99.90;;;;;;4160985;28;20473;-69
2021/03/16 08:25:43;;;;;;;14.05;2.80;;;7.70;99.90;;;;;;4160802;28;20517;-69
2021/03/16 08:27:49;;;;;;;12.50;2.85;;;7.70;99.90;;;;;;4156061;28;20057;-69
2021/03/16 08:29:50;;;;;;;14.93;2.42;;;7.70;99.90;;;;;;4160818;28;20061;-69
2021/03/16 08:31:53;;;;;;;18.83;3.60;;;7.70;99.90;;;;;;4151306;28;20135;-69
2021/03/16 08:33:54;;;;;;;14.88;3.08;;;7.70;99.90;;;;;;4138711;28;20509;-69
2021/03/16 08:35:56;;;;;;;17.23;3.38;;;7.70;99.90;;;;;;4153103;28;20041;-69
2021/03/16 08:37:57;;;;;;;17.05;2.85;;;7.70;99.90;;;;;;4147307;28;20037;-69
2021/03/16 08:40:00;;;;;;;11.93;3.20;;;7.60;99.90;;;;;;4148742;28;20033;-69
2021/03/16 08:42:03;;;;;;;16.20;3.08;;;7.70;99.90;;;;;;4155507;28;20141;-69
2021/03/16 08:44:04;;;;;;;14.32;2.97;;;7.70;99.90;;;;;;4159811;28;20037;-69
2021/03/16 08:46:05;;;;;;;11.48;3.38;;;7.70;99.90;;;;;;4153898;28;20033;-69
2021/03/16 08:48:06;;;;;;;18.52;3.08;;;7.70;99.90;;;;;;4157284;28;20053;-69
2021/03/16 08:50:07;;;;;;;20.48;3.35;;;7.70;99.90;;;;;;4161892;28;20037;-68
2021/03/16 08:52:35;;;;;;;13.38;3.05;;;7.70;99.90;;;;;;4156871;28;20041;-69
2021/03/16 08:54:36;;;;;;;17.38;3.20;;;7.70;99.90;;;;;;4161989;28;20038;-69
2021/03/16 08:56:37;;;;;;;11.95;2.85;;;7.80;99.90;;;;;;4170592;28;20041;-69
2021/03/16 08:58:38;;;;;;;17.00;3.20;;;7.80;99.90;;;;;;4159136;28;20038;-69
2021/03/16 09:00:39;;;;;;;19.83;3.55;;;7.70;99.90;;;;;;4152421;28;20034;-69
2021/03/16 09:02:40;;;;;;;22.40;3.45;;;7.70;99.90;;;;;;4154796;28;20037;-69
2021/03/16 09:04:43;;;;;;;13.93;3.08;;;7.70;99.90;;;;;;4157973;28;20038;-69
2021/03/16 09:06:44;;;;;;;13.68;2.58;;;7.70;99.90;;;;;;4159327;28;20133;-69
2021/03/16 09:08:52;;;;;;;14.32;3.05;;;7.70;99.90;;;;;;4157546;28;20100;-69
2021/03/16 09:10:54;;;;;;;16.00;2.65;;;7.80;99.90;;;;;;4158719;28;20041;-69
2021/03/16 09:12:55;;;;;;;15.53;2.50;;;7.80;99.90;;;;;;4129148;28;20033;-69
2021/03/16 09:15:17;;;;;;;13.55;2.65;;;7.70;99.90;;;;;;4165204;28;20679;-69
2021/03/16 09:17:18;;;;;;;10.43;2.17;;;7.70;99.90;;;;;;4160050;28;20037;-69
2021/03/16 09:19:21;;;;;;;13.38;2.42;;;7.70;99.90;;;;;;4159566;28;20030;-69
2021/03/16 09:21:22;;;;;;;11.80;1.83;;;7.60;99.90;;;;;;4159783;28;20046;-69
2021/03/16 09:23:23;;;;;;;7.82;1.60;;;7.60;99.90;;;;;;4159681;28;20129;-69
2021/03/16 09:25:27;;;;;;;7.47;1.38;;;7.40;99.90;;;;;;4155809;28;20095;-68
2021/03/16 09:27:28;;;;;;;4.47;1.10;;;7.30;99.90;;;;;;4159739;28;20041;-68
2021/03/16 09:29:32;;;;;;;6.80;1.10;;;7.20;99.90;;;;;;4158865;28;20041;-68
2021/03/16 09:31:33;;;;;;;7.68;1.23;;;7.10;99.90;;;;;;4159739;28;20026;-68
2021/03/16 09:33:34;;;;;;;5.10;1.17;;;7.10;99.90;;;;;;4160098;28;20034;-68
2021/03/16 09:35:35;;;;;;;3.93;1.00;;;7.00;99.90;;;;;;4159812;28;20049;-68
2021/03/16 09:37:48;;;;;;;2.97;0.63;;;7.00;99.90;;;;;;4159948;28;20505;-68
2021/03/16 09:39:56;;;;;;;;;;;7.00;99.90;;;;;;4158155;28;20037;-68
2021/03/16 09:42:00;;;;;;;6.47;1.00;;;7.00;99.90;;;;;;4157927;28;19962;-68
2021/03/16 09:44:00;;;;;;;7.07;1.30;;;7.00;99.90;;;;;;4157790;28;20112;-68
2021/03/16 09:46:06;;;;;;;3.17;1.23;;;7.10;99.90;;;;;;4158553;28;20481;-68
2021/03/16 09:48:17;;;;;;;2.78;1.20;;;7.10;99.90;;;;;;4156531;28;20509;-68
2021/03/16 09:50:21;;;;;;;4.28;1.20;;;7.20;99.90;;;;;;4159691;28;20108;-69
2021/03/16 09:52:24;;;;;;;6.75;1.88;;;7.20;99.90;;;;;;4155659;28;20841;-68
2021/03/16 09:54:25;;;;;;;4.57;1.52;;;7.30;99.90;;;;;;4158998;28;20083;-69
2021/03/16 09:56:32;;;;;;;8.40;1.45;;;7.30;99.90;;;;;;4158534;28;21499;-69
2021/03/16 09:58:34;;;;;;;12.70;2.35;;;7.40;99.90;;;;;;4176123;28;20037;-69
2021/03/16 10:00:35;;;;;;;6.10;1.83;;;7.40;99.90;;;;;;4157786;28;20129;-69
2021/03/16 10:02:39;;;;;;;5.53;1.30;;;7.50;99.90;;;;;;4154191;28;20040;-69
2021/03/16 10:04:53;;;;;;;5.43;1.70;;;7.50;99.90;;;;;;4154627;28;20037;-69
2021/03/16 10:06:56;;;;;;;5.25;1.98;;;7.60;99.90;;;;;;4156578;28;20567;-69
2021/03/16 10:08:57;;;;;;;5.30;1.60;;;7.80;99.90;;;;;;4153924;28;20525;-68
2021/03/16 10:10:58;;;;;;;13.40;2.67;;;7.80;99.90;;;;;;4157149;28;20103;-69
2021/03/16 10:13:08;;;;;;;11.90;2.33;;;7.90;99.90;;;;;;4131900;28;20049;-68
2021/03/16 10:15:09;;;;;;;12.18;2.60;;;7.90;99.90;;;;;;4151230;28;20474;-69
2021/03/16 10:17:09;;;;;;;9.65;2.25;;;8.00;99.90;;;;;;4157804;28;20044;-69
2021/03/16 10:19:20;;;;;;;5.75;1.92;;;8.00;99.90;;;;;;4152491;28;20087;-68
2021/03/16 10:21:36;;;;;;;14.10;2.42;;;8.10;99.90;;;;;;4158024;28;20037;-69
2021/03/16 10:23:37;;;;;;;11.07;2.50;;;8.10;99.90;;;;;;4157080;28;20064;-69
2021/03/16 10:25:38;;;;;;;14.55;2.92;;;8.10;99.90;;;;;;4146515;28;20033;-68
2021/03/16 10:27:39;;;;;;;14.13;2.45;;;8.10;99.90;;;;;;4154998;28;20056;-68
2021/03/16 10:29:40;;;;;;;11.77;2.75;;;8.10;99.90;;;;;;4156015;28;20953;-69
2021/03/16 10:31:40;;;;;;;7.97;2.45;;;8.20;99.90;;;;;;4157042;28;20032;-68
2021/03/16 10:33:42;;;;;;;9.32;2.47;;;8.20;99.90;;;;;;4158323;28;20037;-69
2021/03/16 10:35:43;;;;;;;5.90;1.90;;;8.20;99.90;;;;;;4158733;28;20064;-68
2021/03/16 10:37:45;;;;;;;5.32;1.15;;;8.20;99.90;;;;;;4157770;28;20136;-69
2021/03/16 10:39:46;;;;;;;4.95;1.23;;;8.10;99.90;;;;;;4158120;28;20041;-69
2021/03/16 10:41:46;;;;;;;3.80;1.10;;;8.00;99.90;;;;;;4157922;28;20033;-68